PWSweather.com
Personal Weather Stations
Station Observations
KA1WBH
West Island, Fairhaven, MA 02719

West IslandFairhaven, MA 02719

Lat: 41.5979996, Lon: -70.8330002

Elevation: 78

Station Type: Davis Vantage Pro II

Latest ConditionsUpdated 7:05:04 PM EST Tuesday, Mar 3, 2015
Currently Today's Max Today's Min Today's Average
Temperature 28.4°F-2.0°C 30.5°F-0.8°C 17.4°F-8.1°C 24.9°F-3.9°C
Dew Point 25.0°F-3.9°C 25.0°F-3.9°C 7.8°F-13.4°C 13.3°F-10.4°C
Winds 3.0 mph SSW4.8 kmh SSW 11.0 mph SW17.7 kmh SW - 3.4 mph 5.5 kmh
Wind Gusts 11.0 mph17.7 kmh 19.0 mph30.6 kmh - -
Humidity 87% 87% 39% 62%
Pressure 30.19 in1022.4 mb 30.45 in1031.2 mb 30.19 in1022.4 mb -
Hour Temp Dew Point Humidity Winds Wind Gusts Pressure Precip Precip Rate Daily Precip Total
07:05 PM 28.4°F-2.0°C 25.0°F-3.9°C 87% 3.0 mph SSW4.8 kmh SSW 11.0 mph17.7 kmh 30.19 in1022.4 mb 0.00 in0.0 mm 0.00 in/hr0.0 mm/hr 0.04 in1.0 mm
06:50 PM 29.4°F-1.4°C 23.7°F-4.6°C 79% 3.0 mph S4.8 kmh S 11.0 mph17.7 kmh 30.19 in1022.4 mb 0.00 in0.0 mm 0.00 in/hr0.0 mm/hr 0.04 in1.0 mm
06:35 PM 29.1°F-1.6°C 23.4°F-4.8°C 79% 2.0 mph S3.2 kmh S 13.0 mph20.9 kmh 30.20 in1022.7 mb 0.00 in0.0 mm 0.00 in/hr0.0 mm/hr 0.04 in1.0 mm
06:20 PM 29.2°F-1.6°C 22.9°F-5.1°C 77% 2.0 mph SW3.2 kmh SW 10.0 mph16.1 kmh 30.22 in1023.4 mb 0.00 in0.0 mm 0.00 in/hr0.0 mm/hr 0.04 in1.0 mm
06:05 PM 28.9°F-1.7°C 22.3°F-5.4°C 76% 1.0 mph SSW1.6 kmh SSW 15.0 mph24.1 kmh 30.23 in1023.7 mb 0.00 in0.0 mm 0.00 in/hr0.0 mm/hr 0.04 in1.0 mm
05:50 PM 28.6°F-1.9°C 22.0°F-5.6°C 76% 3.0 mph SSW4.8 kmh SSW 13.0 mph20.9 kmh 30.24 in1024.0 mb 0.00 in0.0 mm 0.00 in/hr0.0 mm/hr 0.04 in1.0 mm
05:35 PM 28.4°F-2.0°C 21.5°F-5.8°C 75% 6.0 mph SW9.7 kmh SW 13.0 mph20.9 kmh 30.25 in1024.4 mb 0.00 in0.0 mm 0.00 in/hr0.0 mm/hr 0.04 in1.0 mm
05:20 PM 28.1°F-2.2°C 20.6°F-6.3°C 73% 2.0 mph SW3.2 kmh SW 13.0 mph20.9 kmh 30.24 in1024.0 mb 0.00 in0.0 mm 0.00 in/hr0.0 mm/hr 0.04 in1.0 mm
05:05 PM 27.9°F-2.3°C 20.4°F-6.4°C 73% 3.0 mph SW4.8 kmh SW 11.0 mph17.7 kmh 30.25 in1024.4 mb 0.00 in0.0 mm 0.00 in/hr0.0 mm/hr 0.04 in1.0 mm
04:50 PM 27.7°F-2.4°C 20.2°F-6.6°C 73% 4.0 mph SSW6.4 kmh SSW 16.0 mph25.7 kmh 30.26 in1024.7 mb 0.00 in0.0 mm 0.00 in/hr0.0 mm/hr 0.04 in1.0 mm
04:35 PM 27.5°F-2.5°C 19.4°F-7.0°C 71% 1.0 mph SSW1.6 kmh SSW 18.0 mph29.0 kmh 30.27 in1025.1 mb 0.00 in0.0 mm 0.00 in/hr0.0 mm/hr 0.04 in1.0 mm
04:20 PM 27.4°F-2.6°C 18.6°F-7.4°C 69% 9.0 mph SW14.5 kmh SW 19.0 mph30.6 kmh 30.28 in1025.4 mb 0.00 in0.0 mm 0.00 in/hr0.0 mm/hr 0.04 in1.0 mm
04:05 PM 27.3°F-2.6°C 17.5°F-8.1°C 66% 9.0 mph SW14.5 kmh SW 16.0 mph25.7 kmh 30.30 in1026.1 mb 0.00 in0.0 mm 0.00 in/hr0.0 mm/hr 0.04 in1.0 mm
03:50 PM 27.2°F-2.7°C 17.0°F-8.3°C 65% 3.0 mph SSW4.8 kmh SSW 13.0 mph20.9 kmh 30.30 in1026.1 mb 0.00 in0.0 mm 0.00 in/hr0.0 mm/hr 0.04 in1.0 mm
03:35 PM 27.1°F-2.7°C 16.2°F-8.8°C 63% 2.0 mph SW3.2 kmh SW 12.0 mph19.3 kmh 30.30 in1026.1 mb 0.00 in0.0 mm 0.00 in/hr0.0 mm/hr 0.04 in1.0 mm
03:20 PM 27.1°F-2.7°C 15.5°F-9.2°C 61% 6.0 mph SW9.7 kmh SW 11.0 mph17.7 kmh 30.31 in1026.4 mb 0.00 in0.0 mm 0.00 in/hr0.0 mm/hr 0.04 in1.0 mm
03:05 PM 27.2°F-2.7°C 13.2°F-10.4°C 55% 1.0 mph SSW1.6 kmh SSW 9.0 mph14.5 kmh 30.31 in1026.4 mb 0.00 in0.0 mm 0.00 in/hr0.0 mm/hr 0.04 in1.0 mm
02:50 PM 27.6°F-2.4°C 13.6°F-10.2°C 55% 1.0 mph SW1.6 kmh SW 10.0 mph16.1 kmh 30.33 in1027.1 mb 0.00 in0.0 mm 0.00 in/hr0.0 mm/hr 0.04 in1.0 mm
02:35 PM 27.8°F-2.3°C 13.8°F-10.1°C 55% 11.0 mph SW17.7 kmh SW 12.0 mph19.3 kmh 30.33 in1027.1 mb 0.00 in0.0 mm 0.00 in/hr0.0 mm/hr 0.04 in1.0 mm
02:20 PM 28.1°F-2.2°C 14.4°F-9.8°C 56% 7.0 mph SW11.3 kmh SW 14.0 mph22.5 kmh 30.34 in1027.4 mb 0.00 in0.0 mm 0.00 in/hr0.0 mm/hr 0.04 in1.0 mm
02:05 PM 28.6°F-1.9°C 14.9°F-9.5°C 56% 11.0 mph SW17.7 kmh SW 12.0 mph19.3 kmh 30.34 in1027.4 mb 0.00 in0.0 mm 0.00 in/hr0.0 mm/hr 0.04 in1.0 mm
01:50 PM 28.5°F-1.9°C 14.0°F-10.0°C 54% 5.0 mph SW8.0 kmh SW 15.0 mph24.1 kmh 30.35 in1027.8 mb 0.01 in0.3 mm 0.00 in/hr0.0 mm/hr 0.04 in1.0 mm
01:35 PM 28.5°F-1.9°C 14.8°F-9.6°C 56% 4.0 mph WSW6.4 kmh WSW 12.0 mph19.3 kmh 30.36 in1028.1 mb 0.01 in0.3 mm 0.00 in/hr0.0 mm/hr 0.04 in1.0 mm
01:20 PM 28.9°F-1.7°C 15.2°F-9.3°C 56% 6.0 mph SW9.7 kmh SW 15.0 mph24.1 kmh 30.37 in1028.4 mb 0.01 in0.3 mm 0.00 in/hr0.0 mm/hr 0.04 in1.0 mm
01:05 PM 29.3°F-1.5°C 11.1°F-11.6°C 46% Calm Calm 10.0 mph16.1 kmh 30.37 in1028.4 mb 0.02 in0.5 mm 0.01 in/hr0.3 mm/hr 0.04 in1.0 mm
12:50 PM 30.0°F-1.1°C 9.7°F-12.4°C 42% Calm Calm 6.0 mph9.7 kmh 30.39 in1029.1 mb 0.01 in0.3 mm 0.00 in/hr0.0 mm/hr 0.03 in0.8 mm
12:35 PM 30.2°F-1.0°C 9.9°F-12.3°C 42% Calm Calm 6.0 mph9.7 kmh 30.40 in1029.5 mb 0.02 in0.5 mm 0.00 in/hr0.0 mm/hr 0.03 in0.8 mm
12:20 PM 30.5°F-0.8°C 9.6°F-12.4°C 41% 6.0 mph WSW9.7 kmh WSW 9.0 mph14.5 kmh 30.41 in1029.8 mb 0.02 in0.5 mm 0.00 in/hr0.0 mm/hr 0.03 in0.8 mm
12:05 PM 30.4°F-0.9°C 10.1°F-12.2°C 42% 5.0 mph WSW8.0 kmh WSW 10.0 mph16.1 kmh 30.41 in1029.8 mb 0.02 in0.5 mm 0.01 in/hr0.3 mm/hr 0.03 in0.8 mm
11:50 AM 30.2°F-1.0°C 9.4°F-12.6°C 41% 2.0 mph W3.2 kmh W 9.0 mph14.5 kmh 30.41 in1029.8 mb 0.01 in0.3 mm 0.04 in/hr1.0 mm/hr 0.02 in0.5 mm
11:35 AM 30.3°F-0.9°C 9.4°F-12.6°C 41% 2.0 mph WNW3.2 kmh WNW 5.0 mph8.0 kmh 30.41 in1029.8 mb 0.00 in0.0 mm 0.00 in/hr0.0 mm/hr 0.01 in0.3 mm
11:20 AM 30.4°F-0.9°C 8.4°F-13.1°C 39% 1.0 mph WNW1.6 kmh WNW 4.0 mph6.4 kmh 30.41 in1029.8 mb 0.00 in0.0 mm 0.00 in/hr0.0 mm/hr 0.01 in0.3 mm
11:05 AM 29.9°F-1.2°C 8.0°F-13.3°C 39% 2.0 mph WNW3.2 kmh WNW 7.0 mph11.3 kmh 30.42 in1030.1 mb 0.00 in0.0 mm 0.00 in/hr0.0 mm/hr 0.01 in0.3 mm
10:50 AM 29.7°F-1.3°C 8.4°F-13.1°C 40% 1.0 mph W1.6 kmh W 9.0 mph14.5 kmh 30.42 in1030.1 mb 0.00 in0.0 mm 0.00 in/hr0.0 mm/hr 0.01 in0.3 mm
10:35 AM 29.1°F-1.6°C 9.4°F-12.6°C 43% 3.0 mph NW4.8 kmh NW 10.0 mph16.1 kmh 30.42 in1030.1 mb 0.00 in0.0 mm 0.00 in/hr0.0 mm/hr 0.01 in0.3 mm
10:20 AM 28.9°F-1.7°C 8.7°F-12.9°C 42% 4.0 mph NW6.4 kmh NW 6.0 mph9.7 kmh 30.42 in1030.1 mb 0.01 in0.3 mm 0.00 in/hr0.0 mm/hr 0.01 in0.3 mm
10:04 AM 27.9°F-2.3°C 8.3°F-13.2°C 43% 2.0 mph WNW3.2 kmh WNW 7.0 mph11.3 kmh 30.43 in1030.5 mb 0.01 in0.3 mm 0.00 in/hr0.0 mm/hr 0.01 in0.3 mm
09:49 AM 27.9°F-2.3°C 7.8°F-13.4°C 42% 9.0 mph NW14.5 kmh NW 11.0 mph17.7 kmh 30.42 in1030.1 mb 0.01 in0.3 mm 0.00 in/hr0.0 mm/hr 0.01 in0.3 mm
09:35 AM 26.5°F-3.1°C 9.5°F-12.5°C 48% 4.0 mph NW6.4 kmh NW 11.0 mph17.7 kmh 30.42 in1030.1 mb 0.01 in0.3 mm 0.04 in/hr1.0 mm/hr 0.01 in0.3 mm
09:20 AM 26.3°F-3.2°C 9.3°F-12.6°C 48% 2.0 mph WNW3.2 kmh WNW 13.0 mph20.9 kmh 30.43 in1030.5 mb 0.00 in0.0 mm 0.00 in/hr0.0 mm/hr 0.00 in0.0 mm
09:05 AM 25.7°F-3.5°C 10.1°F-12.2°C 51% 6.0 mph NW9.7 kmh NW 11.0 mph17.7 kmh 30.43 in1030.5 mb 0.00 in0.0 mm 0.00 in/hr0.0 mm/hr 0.00 in0.0 mm
08:50 AM 24.8°F-4.0°C 10.9°F-11.7°C 55% 3.0 mph NW4.8 kmh NW 10.0 mph16.1 kmh 30.44 in1030.8 mb 0.00 in0.0 mm 0.00 in/hr0.0 mm/hr 0.00 in0.0 mm
08:35 AM 24.2°F-4.3°C 11.6°F-11.3°C 58% 5.0 mph NW8.0 kmh NW 9.0 mph14.5 kmh 30.44 in1030.8 mb 0.00 in0.0 mm 0.00 in/hr0.0 mm/hr 0.00 in0.0 mm
08:20 AM 23.7°F-4.6°C 11.9°F-11.2°C 60% 4.0 mph NW6.4 kmh NW 8.0 mph12.9 kmh 30.45 in1031.2 mb 0.00 in0.0 mm 0.00 in/hr0.0 mm/hr 0.00 in0.0 mm
08:05 AM 22.8°F-5.1°C 12.1°F-11.1°C 63% 4.0 mph WNW6.4 kmh WNW 7.0 mph11.3 kmh 30.44 in1030.8 mb 0.00 in0.0 mm 0.00 in/hr0.0 mm/hr 0.00 in0.0 mm
07:50 AM 21.4°F-5.9°C 11.5°F-11.4°C 65% 5.0 mph NW8.0 kmh NW 6.0 mph9.7 kmh 30.44 in1030.8 mb 0.00 in0.0 mm 0.00 in/hr0.0 mm/hr 0.00 in0.0 mm
07:35 AM 20.5°F-6.4°C 12.0°F-11.1°C 69% 1.0 mph NW1.6 kmh NW 5.0 mph8.0 kmh 30.43 in1030.5 mb 0.00 in0.0 mm 0.00 in/hr0.0 mm/hr 0.00 in0.0 mm
07:20 AM 19.1°F-7.2°C 11.6°F-11.3°C 72% 1.0 mph NW1.6 kmh NW 5.0 mph8.0 kmh 30.42 in1030.1 mb 0.00 in0.0 mm 0.00 in/hr0.0 mm/hr 0.00 in0.0 mm
07:05 AM 18.1°F-7.7°C 11.2°F-11.6°C 74% Calm Calm 2.0 mph3.2 kmh 30.42 in1030.1 mb 0.00 in0.0 mm 0.00 in/hr0.0 mm/hr 0.00 in0.0 mm
06:50 AM 17.6°F-8.0°C 11.0°F-11.7°C 75% Calm Calm 6.0 mph9.7 kmh 30.41 in1029.8 mb 0.00 in0.0 mm 0.00 in/hr0.0 mm/hr 0.00 in0.0 mm
06:35 AM 17.4°F-8.1°C 10.2°F-12.1°C 73% Calm Calm 5.0 mph8.0 kmh 30.42 in1030.1 mb 0.00 in0.0 mm 0.00 in/hr0.0 mm/hr 0.00 in0.0 mm
06:20 AM 17.8°F-7.9°C 10.9°F-11.7°C 74% 4.0 mph NW6.4 kmh NW 7.0 mph11.3 kmh 30.41 in1029.8 mb 0.00 in0.0 mm 0.00 in/hr0.0 mm/hr 0.00 in0.0 mm
06:05 AM 17.9°F-7.8°C 10.7°F-11.8°C 73% Calm Calm 3.0 mph4.8 kmh 30.41 in1029.8 mb 0.00 in0.0 mm 0.00 in/hr0.0 mm/hr 0.00 in0.0 mm
05:50 AM 18.0°F-7.8°C 11.1°F-11.6°C 74% 4.0 mph NW6.4 kmh NW 6.0 mph9.7 kmh 30.40 in1029.5 mb 0.00 in0.0 mm 0.00 in/hr0.0 mm/hr 0.00 in0.0 mm
05:35 AM 18.0°F-7.8°C 11.1°F-11.6°C 74% 1.0 mph NW1.6 kmh NW 3.0 mph4.8 kmh 30.40 in1029.5 mb 0.00 in0.0 mm 0.00 in/hr0.0 mm/hr 0.00 in0.0 mm
05:20 AM 18.1°F-7.7°C 10.9°F-11.7°C 73% 2.0 mph NW3.2 kmh NW 6.0 mph9.7 kmh 30.39 in1029.1 mb 0.00 in0.0 mm 0.00 in/hr0.0 mm/hr 0.00 in0.0 mm
05:05 AM 18.4°F-7.6°C 11.2°F-11.6°C 73% 1.0 mph NW1.6 kmh NW 3.0 mph4.8 kmh 30.39 in1029.1 mb 0.00 in0.0 mm 0.00 in/hr0.0 mm/hr 0.00 in0.0 mm
04:50 AM 18.6°F-7.4°C 11.7°F-11.3°C 74% 2.0 mph NW3.2 kmh NW 9.0 mph14.5 kmh 30.37 in1028.4 mb 0.00 in0.0 mm 0.00 in/hr0.0 mm/hr 0.00 in0.0 mm
04:35 AM 18.7°F-7.4°C 11.2°F-11.6°C 72% 3.0 mph NW4.8 kmh NW 6.0 mph9.7 kmh 30.38 in1028.8 mb 0.00 in0.0 mm 0.00 in/hr0.0 mm/hr 0.00 in0.0 mm
04:20 AM 19.0°F-7.2°C 11.5°F-11.4°C 72% 3.0 mph NW4.8 kmh NW 6.0 mph9.7 kmh 30.37 in1028.4 mb 0.00 in0.0 mm 0.00 in/hr0.0 mm/hr 0.00 in0.0 mm
04:05 AM 18.9°F-7.3°C 11.1°F-11.6°C 71% Calm Calm 2.0 mph3.2 kmh 30.36 in1028.1 mb 0.00 in0.0 mm 0.00 in/hr0.0 mm/hr 0.00 in0.0 mm
03:50 AM 19.7°F-6.8°C 11.5°F-11.4°C 70% 4.0 mph NW6.4 kmh NW 4.0 mph6.4 kmh 30.36 in1028.1 mb 0.00 in0.0 mm 0.00 in/hr0.0 mm/hr 0.00 in0.0 mm
03:35 AM 20.2°F-6.6°C 11.4°F-11.4°C 68% Calm Calm 3.0 mph4.8 kmh 30.36 in1028.1 mb 0.00 in0.0 mm 0.00 in/hr0.0 mm/hr 0.00 in0.0 mm
03:20 AM 21.1°F-6.1°C 10.8°F-11.8°C 64% 3.0 mph NW4.8 kmh NW 6.0 mph9.7 kmh 30.34 in1027.4 mb 0.00 in0.0 mm 0.00 in/hr0.0 mm/hr 0.00 in0.0 mm
03:05 AM 21.6°F-5.8°C 10.2°F-12.1°C 61% 5.0 mph NW8.0 kmh NW 9.0 mph14.5 kmh 30.34 in1027.4 mb 0.00 in0.0 mm 0.00 in/hr0.0 mm/hr 0.00 in0.0 mm
02:50 AM 21.9°F-5.6°C 10.9°F-11.7°C 62% 5.0 mph NW8.0 kmh NW 7.0 mph11.3 kmh 30.34 in1027.4 mb 0.00 in0.0 mm 0.00 in/hr0.0 mm/hr 0.00 in0.0 mm
02:35 AM 22.4°F-5.3°C 11.0°F-11.7°C 61% 4.0 mph NW6.4 kmh NW 10.0 mph16.1 kmh 30.33 in1027.1 mb 0.00 in0.0 mm 0.00 in/hr0.0 mm/hr 0.00 in0.0 mm
02:20 AM 22.6°F-5.2°C 11.9°F-11.2°C 63% 6.0 mph NW9.7 kmh NW 11.0 mph17.7 kmh 30.33 in1027.1 mb 0.00 in0.0 mm 0.00 in/hr0.0 mm/hr 0.00 in0.0 mm
02:05 AM 22.3°F-5.4°C 12.3°F-10.9°C 65% 4.0 mph NW6.4 kmh NW 13.0 mph20.9 kmh 30.33 in1027.1 mb 0.00 in0.0 mm 0.00 in/hr0.0 mm/hr 0.00 in0.0 mm
01:50 AM 22.9°F-5.1°C 12.6°F-10.8°C 64% 6.0 mph NW9.7 kmh NW 14.0 mph22.5 kmh 30.33 in1027.1 mb 0.00 in0.0 mm 0.00 in/hr0.0 mm/hr 0.00 in0.0 mm
01:35 AM 22.4°F-5.3°C 13.5°F-10.3°C 68% 4.0 mph NW6.4 kmh NW 11.0 mph17.7 kmh 30.33 in1027.1 mb 0.00 in0.0 mm 0.00 in/hr0.0 mm/hr 0.00 in0.0 mm
01:20 AM 22.7°F-5.2°C 13.7°F-10.2°C 68% 6.0 mph WSW9.7 kmh WSW 11.0 mph17.7 kmh 30.32 in1026.8 mb 0.00 in0.0 mm 0.00 in/hr0.0 mm/hr 0.00 in0.0 mm
01:05 AM 23.1°F-4.9°C 13.8°F-10.1°C 67% 3.0 mph WNW4.8 kmh WNW 7.0 mph11.3 kmh 30.31 in1026.4 mb 0.00 in0.0 mm 0.00 in/hr0.0 mm/hr 0.00 in0.0 mm
12:50 AM 23.4°F-4.8°C 13.7°F-10.2°C 66% 6.0 mph WNW9.7 kmh WNW 6.0 mph9.7 kmh 30.31 in1026.4 mb 0.00 in0.0 mm 0.00 in/hr0.0 mm/hr 0.00 in0.0 mm
12:35 AM 23.7°F-4.6°C 14.0°F-10.0°C 66% 3.0 mph WNW4.8 kmh WNW 9.0 mph14.5 kmh 30.30 in1026.1 mb 0.00 in0.0 mm 0.00 in/hr0.0 mm/hr 0.00 in0.0 mm
12:20 AM 24.0°F-4.4°C 14.0°F-10.0°C 65% 2.0 mph NW3.2 kmh NW 10.0 mph16.1 kmh 30.29 in1025.7 mb 0.00 in0.0 mm 0.00 in/hr0.0 mm/hr 0.00 in0.0 mm
12:05 AM 24.3°F-4.3°C 14.2°F-9.9°C 65% 6.0 mph W9.7 kmh W 9.0 mph14.5 kmh 30.29 in1025.7 mb 0.00 in0.0 mm 0.00 in/hr0.0 mm/hr 0.00 in0.0 mm